createdAt,value
2017-07-04T00:00:50.725Z,0
2017-07-04T00:01:50.758Z,0
2017-07-04T00:02:50.804Z,0
2017-07-04T00:03:50.838Z,0
2017-07-04T00:04:50.880Z,0
2017-07-04T00:05:50.926Z,0
2017-07-04T00:06:50.963Z,0
2017-07-04T00:07:50.996Z,0
2017-07-04T00:08:51.352Z,0
2017-07-04T00:09:51.078Z,0
2017-07-04T00:10:51.117Z,0
2017-07-04T00:11:51.166Z,0
2017-07-04T00:12:51.201Z,0
2017-07-04T00:13:51.238Z,0
2017-07-04T00:14:51.286Z,0
2017-07-04T00:15:51.318Z,0
2017-07-04T00:16:51.365Z,0
2017-07-04T00:17:51.399Z,0
2017-07-04T00:18:51.442Z,0
2017-07-04T00:19:51.484Z,0
2017-07-04T00:20:51.524Z,0
2017-07-04T00:21:51.564Z,0
2017-07-04T00:22:51.600Z,0
2017-07-04T00:23:51.956Z,0
2017-07-04T00:24:51.681Z,0
2017-07-04T00:25:51.770Z,0
2017-07-04T00:26:51.762Z,0
2017-07-04T00:27:51.799Z,0
2017-07-04T00:28:51.841Z,0
2017-07-04T00:29:51.884Z,0
2017-07-04T00:30:51.918Z,0
2017-07-04T00:31:51.965Z,0
2017-07-04T00:32:51.999Z,0
2017-07-04T00:33:52.046Z,0
2017-07-04T00:34:52.083Z,0
2017-07-04T00:35:52.126Z,0
2017-07-04T00:36:52.166Z,0
2017-07-04T00:37:52.200Z,0
2017-07-04T00:38:52.244Z,0
2017-07-04T00:39:52.285Z,0
2017-07-04T00:40:52.323Z,0
2017-07-04T00:41:52.358Z,0
2017-07-04T00:42:52.407Z,0
2017-07-04T00:43:52.440Z,0
2017-07-04T00:44:52.485Z,0
2017-07-04T00:45:52.524Z,0
2017-07-04T00:46:52.562Z,0
2017-07-04T00:47:52.604Z,0
2017-07-04T00:48:52.643Z,0
2017-07-04T00:49:52.682Z,0
2017-07-04T00:50:52.719Z,0
2017-07-04T00:51:52.767Z,0
2017-07-04T00:52:52.800Z,0
2017-07-04T00:53:52.846Z,0
2017-07-04T00:54:53.195Z,0
2017-07-04T00:55:52.923Z,0
2017-07-04T00:56:52.965Z,0
2017-07-04T00:57:53.004Z,0
2017-07-04T00:58:53.042Z,0
2017-07-04T00:59:53.084Z,0
2017-07-04T01:00:53.121Z,0
2017-07-04T01:01:53.166Z,0
2017-07-04T01:02:53.202Z,0
2017-07-04T01:03:53.245Z,0
2017-07-04T01:04:53.283Z,0
2017-07-04T01:05:53.323Z,0
2017-07-04T01:06:53.356Z,0
2017-07-04T01:07:53.406Z,0
2017-07-04T01:08:53.445Z,0
2017-07-04T01:09:53.482Z,0
2017-07-04T01:10:53.523Z,0
2017-07-04T01:11:53.567Z,0
2017-07-04T01:12:53.600Z,0
2017-07-04T01:13:53.642Z,0
2017-07-04T01:14:53.684Z,0
2017-07-04T01:15:53.716Z,0
2017-07-04T01:16:53.762Z,0
2017-07-04T01:17:53.803Z,0
2017-07-04T01:18:53.847Z,0
2017-07-04T01:19:53.877Z,0
2017-07-04T01:20:53.933Z,0
2017-07-04T01:21:53.963Z,0
2017-07-04T01:22:54.004Z,0
2017-07-04T01:23:54.036Z,0
2017-07-04T01:24:54.075Z,0
2017-07-04T01:25:54.117Z,0
2017-07-04T01:26:54.159Z,0
2017-07-04T01:27:54.200Z,0
2017-07-04T01:28:54.240Z,0
2017-07-04T01:29:54.277Z,0
2017-07-04T01:30:54.321Z,0
2017-07-04T01:31:54.360Z,0
2017-07-04T01:32:54.395Z,0
2017-07-04T01:33:54.442Z,0
2017-07-04T01:34:54.475Z,0
2017-07-04T01:35:54.517Z,0
2017-07-04T01:36:54.560Z,0
2017-07-04T01:37:54.594Z,0
2017-07-04T01:38:54.635Z,0
2017-07-04T01:39:54.675Z,0
2017-07-04T01:40:54.720Z,0
2017-07-04T01:41:54.758Z,0
2017-07-04T01:42:54.793Z,0
2017-07-04T01:43:55.156Z,0
2017-07-04T01:44:54.878Z,0
2017-07-04T01:45:54.913Z,0
2017-07-04T01:46:54.956Z,0
2017-07-04T01:47:54.994Z,0
2017-07-04T01:48:55.040Z,0
2017-07-04T01:49:55.071Z,0
2017-07-04T01:50:55.117Z,0
2017-07-04T01:51:55.156Z,0
2017-07-04T01:52:55.200Z,0
2017-07-04T01:53:55.238Z,0
2017-07-04T01:54:55.592Z,0
2017-07-04T01:55:55.312Z,0
2017-07-04T01:56:55.354Z,0
2017-07-04T01:57:55.395Z,0
2017-07-04T01:58:55.431Z,0
2017-07-04T01:59:55.477Z,0
2017-07-04T02:00:55.511Z,0
2017-07-04T02:01:55.556Z,0
2017-07-04T02:02:55.596Z,0
2017-07-04T02:03:55.630Z,0
2017-07-04T02:04:55.668Z,0
2017-07-04T02:05:55.711Z,0
2017-07-04T02:06:55.755Z,0
2017-07-04T02:07:55.794Z,0
2017-07-04T02:08:55.833Z,0
2017-07-04T02:09:55.878Z,0
2017-07-04T02:10:55.913Z,0
2017-07-04T02:11:55.951Z,0
2017-07-04T02:12:55.993Z,0
2017-07-04T02:13:56.034Z,0
2017-07-04T02:14:56.073Z,0
2017-07-04T02:15:56.112Z,0
2017-07-04T02:16:56.153Z,0
2017-07-04T02:17:56.187Z,0
2017-07-04T02:18:56.230Z,0
2017-07-04T02:19:56.269Z,0
2017-07-04T02:20:56.310Z,0
2017-07-04T02:21:56.342Z,0
2017-07-04T02:22:56.390Z,4
2017-07-04T02:23:56.422Z,4
2017-07-04T02:24:56.465Z,0
2017-07-04T02:25:56.503Z,4
2017-07-04T02:26:56.546Z,4
2017-07-04T02:27:56.588Z,4
2017-07-04T02:28:56.656Z,4
2017-07-04T02:29:56.663Z,8
2017-07-04T02:30:56.706Z,4
2017-07-04T02:31:56.749Z,8
2017-07-04T02:32:56.787Z,8
2017-07-04T02:33:56.822Z,8
2017-07-04T02:34:56.867Z,12
2017-07-04T02:35:56.902Z,12
2017-07-04T02:36:56.944Z,12
2017-07-04T02:37:56.984Z,12
2017-07-04T02:38:57.021Z,12
2017-07-04T02:39:57.067Z,16
2017-07-04T02:40:57.098Z,20
2017-07-04T02:41:57.143Z,24
2017-07-04T02:42:57.180Z,24
2017-07-04T02:43:57.220Z,28
2017-07-04T02:44:57.261Z,36
2017-07-04T02:45:57.303Z,36
2017-07-04T02:46:57.346Z,40
2017-07-04T02:47:57.376Z,40
2017-07-04T02:48:57.415Z,36
2017-07-04T02:49:57.456Z,44
2017-07-04T02:50:57.500Z,44
2017-07-04T02:51:57.543Z,48
2017-07-04T02:52:57.579Z,52
2017-07-04T02:53:57.628Z,56
2017-07-04T02:54:57.656Z,56
2017-07-04T02:55:57.702Z,48
2017-07-04T02:56:57.741Z,40
2017-07-04T02:57:57.781Z,40
2017-07-04T02:58:57.816Z,36
2017-07-04T02:59:57.859Z,40
2017-07-04T03:00:58.212Z,40
2017-07-04T03:01:57.936Z,48
2017-07-04T03:02:57.974Z,60
2017-07-04T03:03:58.017Z,68
2017-07-04T03:04:58.051Z,76
2017-07-04T03:05:58.095Z,76
2017-07-04T03:06:58.138Z,76
2017-07-04T03:07:58.176Z,80
2017-07-04T03:08:58.223Z,96
2017-07-04T03:09:58.252Z,116
2017-07-04T03:10:58.293Z,116
2017-07-04T03:11:58.327Z,104
2017-07-04T03:12:58.373Z,92
2017-07-04T03:13:58.410Z,88
2017-07-04T03:14:58.449Z,96
2017-07-04T03:15:58.490Z,100
2017-07-04T03:16:58.533Z,96
2017-07-04T03:17:58.572Z,100
2017-07-04T03:18:58.612Z,92
2017-07-04T03:19:58.651Z,84
2017-07-04T03:20:58.684Z,88
2017-07-04T03:21:58.730Z,88
2017-07-04T03:22:58.764Z,104
2017-07-04T03:23:58.804Z,152
2017-07-04T03:24:58.842Z,204
2017-07-04T03:25:58.886Z,228
2017-07-04T03:26:58.928Z,244
2017-07-04T03:27:58.963Z,252
2017-07-04T03:28:59.320Z,252
2017-07-04T03:29:59.049Z,260
2017-07-04T03:30:59.081Z,260
2017-07-04T03:31:59.122Z,276
2017-07-04T03:32:59.159Z,304
2017-07-04T03:33:59.207Z,300
2017-07-04T03:34:59.243Z,332
2017-07-04T03:35:59.285Z,368
2017-07-04T03:36:59.340Z,368
2017-07-04T03:37:59.357Z,364
2017-07-04T03:38:59.403Z,400
2017-07-04T03:39:59.440Z,432
2017-07-04T03:40:59.476Z,480
2017-07-04T03:41:59.523Z,528
2017-07-04T03:42:59.561Z,528
2017-07-04T03:43:59.599Z,516
2017-07-04T03:44:59.642Z,524
2017-07-04T03:45:59.810Z,556
2017-07-04T03:46:59.712Z,564
2017-07-04T03:47:59.754Z,596
2017-07-04T03:48:59.797Z,664
2017-07-04T03:49:59.829Z,732
2017-07-04T03:50:59.877Z,828
2017-07-04T03:51:59.910Z,1008
2017-07-04T03:52:59.951Z,1048
2017-07-04T03:53:59.991Z,1024
2017-07-04T03:55:00.035Z,940
2017-07-04T03:56:00.068Z,892
2017-07-04T03:57:00.115Z,868
2017-07-04T03:58:00.150Z,848
2017-07-04T03:59:00.192Z,788
2017-07-04T04:00:00.233Z,788
2017-07-04T04:01:00.311Z,868
2017-07-04T04:02:00.304Z,848
2017-07-04T04:03:00.351Z,828
2017-07-04T04:04:00.391Z,856
2017-07-04T04:05:00.427Z,948
2017-07-04T04:06:00.470Z,1148
2017-07-04T04:07:00.507Z,1160
2017-07-04T04:08:00.546Z,1048
2017-07-04T04:09:00.584Z,1020
2017-07-04T04:10:00.942Z,1068
2017-07-04T04:11:00.665Z,1032
2017-07-04T04:12:00.701Z,1008
2017-07-04T04:13:00.745Z,1028
2017-07-04T04:14:00.788Z,1080
2017-07-04T04:15:00.822Z,1156
2017-07-04T04:16:00.862Z,1200
2017-07-04T04:17:00.903Z,1216
2017-07-04T04:18:00.942Z,1212
2017-07-04T04:19:00.977Z,1268
2017-07-04T04:20:01.016Z,1236
2017-07-04T04:21:01.060Z,1252
2017-07-04T04:22:01.096Z,1272
2017-07-04T04:23:01.143Z,1324
2017-07-04T04:24:01.174Z,1412
2017-07-04T04:25:01.215Z,1540
2017-07-04T04:26:01.254Z,1584
2017-07-04T04:27:01.299Z,1620
2017-07-04T04:28:01.334Z,1800
2017-07-04T04:29:01.372Z,2064
2017-07-04T04:30:01.420Z,2192
2017-07-04T04:31:01.454Z,2264
2017-07-04T04:32:01.492Z,2256
2017-07-04T04:33:01.540Z,2240
2017-07-04T04:34:01.569Z,1984
2017-07-04T04:35:01.614Z,1948
2017-07-04T04:36:01.655Z,2244
2017-07-04T04:37:01.695Z,2868
2017-07-04T04:38:01.733Z,3296
2017-07-04T04:39:01.773Z,3764
2017-07-04T04:40:01.808Z,4344
2017-07-04T04:41:01.852Z,4716
2017-07-04T04:42:01.888Z,5376
2017-07-04T04:43:01.931Z,6084
2017-07-04T04:44:01.966Z,6288
2017-07-04T04:45:02.015Z,6424
2017-07-04T04:46:02.050Z,5688
2017-07-04T04:47:02.088Z,4864
2017-07-04T04:48:02.131Z,4520
2017-07-04T04:49:02.171Z,3472
2017-07-04T04:50:02.206Z,2848
2017-07-04T04:51:02.250Z,2832
2017-07-04T04:52:02.288Z,2796
2017-07-04T04:53:02.330Z,2972
2017-07-04T04:54:02.366Z,3132
2017-07-04T04:55:02.408Z,3372
2017-07-04T04:56:02.449Z,3124
2017-07-04T04:57:02.483Z,2772
2017-07-04T04:58:02.528Z,2528
2017-07-04T04:59:02.565Z,2360
2017-07-04T05:00:02.604Z,2240
2017-07-04T05:01:02.645Z,2260
2017-07-04T05:02:02.688Z,2304
2017-07-04T05:03:02.886Z,2344
2017-07-04T05:04:02.762Z,2416
2017-07-04T05:05:02.808Z,2500
2017-07-04T05:06:02.847Z,2460
2017-07-04T05:07:02.888Z,2440
2017-07-04T05:08:02.918Z,2360
2017-07-04T05:09:02.961Z,2316
2017-07-04T05:10:03.004Z,2292
2017-07-04T05:11:03.041Z,2348
2017-07-04T05:12:03.081Z,2388
2017-07-04T05:13:03.128Z,2376
2017-07-04T05:14:03.158Z,2428
2017-07-04T05:15:03.205Z,2424
2017-07-04T05:16:03.239Z,2396
2017-07-04T05:17:03.282Z,2468
2017-07-04T05:18:03.324Z,2516
2017-07-04T05:19:03.364Z,2576
2017-07-04T05:20:03.404Z,2688
2017-07-04T05:21:03.440Z,2908
2017-07-04T05:22:03.489Z,3076
2017-07-04T05:23:03.519Z,3036
2017-07-04T05:24:03.563Z,2828
2017-07-04T05:25:03.597Z,2880
2017-07-04T05:26:03.640Z,2876
2017-07-04T05:27:03.687Z,2856
2017-07-04T05:28:03.719Z,2852
2017-07-04T05:29:03.760Z,2888
2017-07-04T05:30:03.802Z,2980
2017-07-04T05:31:03.837Z,3132
2017-07-04T05:32:03.892Z,3272
2017-07-04T05:33:04.237Z,3556
2017-07-04T05:34:03.970Z,3636
2017-07-04T05:35:03.994Z,3724
2017-07-04T05:36:04.039Z,3688
2017-07-04T05:37:04.086Z,3736
2017-07-04T05:38:04.150Z,3916
2017-07-04T05:39:04.159Z,4120
2017-07-04T05:40:04.191Z,4328
2017-07-04T05:41:04.237Z,4676
2017-07-04T05:42:04.276Z,4832
2017-07-04T05:43:04.309Z,5224
2017-07-04T05:44:04.676Z,5556
2017-07-04T05:45:04.391Z,6304
2017-07-04T05:46:04.431Z,7076
2017-07-04T05:47:04.479Z,7932
2017-07-04T05:48:04.517Z,8468
2017-07-04T05:49:04.552Z,8308
2017-07-04T05:50:04.605Z,8736
2017-07-04T05:51:04.636Z,10916
2017-07-04T05:52:04.678Z,11924
2017-07-04T05:53:04.716Z,20160
2017-07-04T05:54:04.750Z,27936
2017-07-04T05:55:04.799Z,40160
2017-07-04T05:56:04.832Z,23904
2017-07-04T05:57:04.880Z,21408
2017-07-04T05:58:04.917Z,45824
2017-07-04T05:59:04.972Z,40800
2017-07-04T06:00:04.999Z,26560
2017-07-04T06:01:05.045Z,14656
2017-07-04T06:02:05.184Z,20928
2017-07-04T06:03:05.133Z,24992
2017-07-04T06:04:05.202Z,21216
2017-07-04T06:05:05.321Z,23648
2017-07-04T06:06:05.262Z,14784
2017-07-04T06:07:05.306Z,48000
2017-07-04T06:08:05.344Z,47936
2017-07-04T06:09:05.388Z,48384
2017-07-04T06:10:05.435Z,47616
2017-07-04T06:11:05.485Z,49856
2017-07-04T06:12:05.597Z,49152
2017-07-04T06:13:05.570Z,47968
2017-07-04T06:14:05.618Z,49280
2017-07-04T06:15:05.662Z,52128
2017-07-04T06:16:05.719Z,55168
2017-07-04T06:17:05.763Z,59712
2017-07-04T06:18:05.817Z,32704
2017-07-04T06:19:05.867Z,17120
2017-07-04T06:20:05.905Z,15244
2017-07-04T06:21:05.951Z,13988
2017-07-04T06:22:06.003Z,13012
2017-07-04T06:23:06.053Z,12944
2017-07-04T06:24:06.105Z,13688
2017-07-04T06:25:06.143Z,15148
2017-07-04T06:26:06.195Z,17856
2017-07-04T06:27:06.242Z,20384
2017-07-04T06:28:06.288Z,21632
2017-07-04T06:29:06.648Z,21824
2017-07-04T06:30:06.375Z,30304
2017-07-04T06:31:06.424Z,26464
2017-07-04T06:32:06.468Z,25600
2017-07-04T06:33:06.520Z,22112
2017-07-04T06:34:06.564Z,21024
2017-07-04T06:35:06.604Z,19040
2017-07-04T06:36:06.654Z,22720
2017-07-04T06:37:06.701Z,21824
2017-07-04T06:38:06.740Z,16480
2017-07-04T06:39:06.791Z,16336
2017-07-04T06:40:06.838Z,16232
2017-07-04T06:41:06.876Z,15884
2017-07-04T06:42:06.928Z,16136
2017-07-04T06:43:06.973Z,15968
2017-07-04T06:44:07.028Z,15940
2017-07-04T06:45:07.054Z,17440
2017-07-04T06:46:07.102Z,17536
2017-07-04T06:47:07.150Z,19456
2017-07-04T06:48:07.189Z,15108
2017-07-04T06:49:07.235Z,12460
2017-07-04T06:50:07.281Z,13184
2017-07-04T06:51:07.328Z,16544
2017-07-04T06:52:07.367Z,14668
2017-07-04T06:53:07.408Z,11844
2017-07-04T06:54:07.455Z,11948
2017-07-04T06:55:07.504Z,15560
2017-07-04T06:56:07.541Z,13984
2017-07-04T06:57:07.587Z,15628
2017-07-04T06:58:07.633Z,46656
2017-07-04T06:59:07.721Z,71104
2017-07-04T07:00:07.715Z,53600
2017-07-04T07:01:07.765Z,34048
2017-07-04T07:02:07.803Z,32288
2017-07-04T07:03:07.849Z,39360
2017-07-04T07:04:07.908Z,37344
2017-07-04T07:05:07.944Z,46720
2017-07-04T07:06:07.989Z,39296
2017-07-04T07:07:08.035Z,46688
2017-07-04T07:08:08.074Z,52640
2017-07-04T07:09:08.120Z,50336
2017-07-04T07:10:08.167Z,55136
2017-07-04T07:11:08.216Z,71840
2017-07-04T07:12:08.268Z,74496
2017-07-04T07:13:08.306Z,75904
2017-07-04T07:14:08.359Z,53152
2017-07-04T07:15:08.409Z,33696
2017-07-04T07:16:08.460Z,27712
2017-07-04T07:17:08.816Z,84512
2017-07-04T07:18:08.557Z,83712
2017-07-04T07:19:08.601Z,84224
2017-07-04T07:20:08.657Z,71040
2017-07-04T07:21:08.702Z,71424
2017-07-04T07:22:08.757Z,42080
2017-07-04T07:23:08.808Z,19328
2017-07-04T07:24:08.854Z,18048
2017-07-04T07:25:08.910Z,16704
2017-07-04T07:26:08.959Z,21792
2017-07-04T07:27:09.014Z,70304
2017-07-04T07:28:09.062Z,41024
2017-07-04T07:29:09.116Z,38112
2017-07-04T07:30:09.156Z,25024
2017-07-04T07:31:09.216Z,16960
2017-07-04T07:32:09.572Z,14124
2017-07-04T07:33:09.310Z,24064
2017-07-04T07:34:09.361Z,27296
2017-07-04T07:35:09.410Z,18592
2017-07-04T07:36:09.459Z,14340
2017-07-04T07:37:09.508Z,13976
2017-07-04T07:38:09.554Z,12860
2017-07-04T07:39:09.606Z,12756
2017-07-04T07:40:09.658Z,12000
2017-07-04T07:41:09.703Z,11668
2017-07-04T07:42:09.746Z,12444
2017-07-04T07:43:09.799Z,10768
2017-07-04T07:44:09.838Z,12180
2017-07-04T07:45:09.887Z,11768
2017-07-04T07:46:09.934Z,7528
2017-07-04T07:47:09.985Z,5604
2017-07-04T07:48:10.027Z,5820
2017-07-04T07:49:10.080Z,5816
2017-07-04T07:50:10.119Z,5352
2017-07-04T07:51:10.163Z,5672
2017-07-04T07:52:10.208Z,5884
2017-07-04T07:53:10.255Z,11700
2017-07-04T07:54:13.611Z,32160
2017-07-04T07:55:10.342Z,12528
2017-07-04T07:56:10.393Z,10020
2017-07-04T07:57:10.429Z,8268
2017-07-04T07:58:10.486Z,8580
2017-07-04T07:59:10.536Z,14056
2017-07-04T08:00:13.460Z,13524
2017-07-04T08:01:10.609Z,14812
2017-07-04T08:02:10.651Z,16024
2017-07-04T08:03:10.700Z,19200
2017-07-04T08:04:10.742Z,75328
2017-07-04T08:05:10.785Z,77952
2017-07-04T08:06:10.828Z,43712
2017-07-04T08:07:10.884Z,80928
2017-07-04T08:08:10.922Z,81664
2017-07-04T08:09:10.966Z,27008
2017-07-04T08:10:11.021Z,30112
2017-07-04T08:11:11.069Z,33632
2017-07-04T08:12:11.112Z,30176
2017-07-04T08:13:11.159Z,16640
2017-07-04T08:14:11.219Z,12184
2017-07-04T08:15:11.262Z,9720
2017-07-04T08:16:11.303Z,8064
2017-07-04T08:17:11.357Z,8344
2017-07-04T08:18:11.399Z,8692
2017-07-04T08:19:11.471Z,9420
2017-07-04T08:20:11.496Z,10840
2017-07-04T08:21:11.539Z,12040
2017-07-04T08:22:11.596Z,11400
2017-07-04T08:23:11.631Z,11268
2017-07-04T08:24:11.678Z,12508
2017-07-04T08:25:11.729Z,11584
2017-07-04T08:26:11.779Z,12648
2017-07-04T08:27:11.819Z,50784
2017-07-04T08:28:11.857Z,6716
2017-07-04T08:29:11.921Z,3972
2017-07-04T08:30:11.950Z,2960
2017-07-04T08:31:11.998Z,3096
2017-07-04T08:32:12.039Z,3736
2017-07-04T08:33:12.093Z,4952
2017-07-04T08:34:12.131Z,6392
2017-07-04T08:35:12.179Z,8016
2017-07-04T08:36:12.222Z,11248
2017-07-04T08:37:12.268Z,11708
2017-07-04T08:38:12.313Z,74336
2017-07-04T08:39:12.359Z,85376
2017-07-04T08:40:12.402Z,26720
2017-07-04T08:41:12.440Z,93856
2017-07-04T08:42:12.497Z,25568
2017-07-04T08:43:12.531Z,23392
2017-07-04T08:44:12.574Z,74080
2017-07-04T08:45:12.629Z,72800
2017-07-04T08:46:12.683Z,69760
2017-07-04T08:47:12.713Z,42144
2017-07-04T08:48:12.771Z,28512
2017-07-04T08:49:12.808Z,20960
2017-07-04T08:50:12.858Z,21504
2017-07-04T08:51:12.907Z,25856
2017-07-04T08:52:12.964Z,23520
2017-07-04T08:53:13.001Z,44288
2017-07-04T08:54:13.050Z,24448
2017-07-04T08:55:13.095Z,22336
2017-07-04T08:56:13.141Z,107616
2017-07-04T08:57:13.188Z,39840
2017-07-04T08:58:13.245Z,16368
2017-07-04T08:59:13.287Z,12552
2017-07-04T09:00:13.336Z,10908
2017-07-04T09:01:13.387Z,12900
2017-07-04T09:02:13.430Z,20864
2017-07-04T09:03:13.482Z,75008
2017-07-04T09:04:13.523Z,72928
2017-07-04T09:05:13.578Z,54624
2017-07-04T09:06:13.626Z,44768
2017-07-04T09:07:13.673Z,23840
2017-07-04T09:08:13.720Z,51168
2017-07-04T09:09:13.776Z,13604
2017-07-04T09:10:13.815Z,10536
2017-07-04T09:11:14.298Z,49312
2017-07-04T09:12:16.961Z,13420
2017-07-04T09:13:16.669Z,15048
2017-07-04T09:14:14.007Z,16908
2017-07-04T09:15:14.058Z,19680
2017-07-04T09:16:14.105Z,15152
2017-07-04T09:17:14.157Z,54272
2017-07-04T09:18:14.202Z,82176
2017-07-04T09:19:14.249Z,83328
2017-07-04T09:20:14.292Z,81504
2017-07-04T09:21:14.344Z,90208
2017-07-04T09:22:14.388Z,79232
2017-07-04T09:23:14.443Z,91392
2017-07-04T09:24:14.491Z,79968
2017-07-04T09:25:14.538Z,84896
2017-07-04T09:26:14.585Z,88864
2017-07-04T09:27:14.637Z,97728
2017-07-04T09:28:14.690Z,103776
2017-07-04T09:29:14.746Z,77568
2017-07-04T09:30:14.799Z,109344
2017-07-04T09:31:14.846Z,95264
2017-07-04T09:32:14.897Z,90560
2017-07-04T09:33:14.950Z,76448
2017-07-04T09:34:15.007Z,76672
2017-07-04T09:35:15.055Z,86208
2017-07-04T09:36:15.117Z,23488
2017-07-04T09:37:15.168Z,101888
2017-07-04T09:38:15.215Z,79712
2017-07-04T09:39:15.269Z,75136
2017-07-04T09:40:15.323Z,17984
2017-07-04T09:41:15.381Z,12404
2017-07-04T09:42:15.432Z,11628
2017-07-04T09:43:15.487Z,11012
2017-07-04T09:44:15.540Z,8712
2017-07-04T09:45:15.590Z,9492
2017-07-04T09:46:15.659Z,15608
2017-07-04T09:47:15.700Z,79616
2017-07-04T09:48:15.748Z,76608
2017-07-04T09:49:15.793Z,85824
2017-07-04T09:50:15.847Z,84128
2017-07-04T09:51:15.901Z,74944
2017-07-04T09:52:15.948Z,77568
2017-07-04T09:53:16.003Z,88288
2017-07-04T09:54:16.054Z,90560
2017-07-04T09:55:16.103Z,60832
2017-07-04T09:56:16.156Z,78368
2017-07-04T09:57:16.207Z,92032
2017-07-04T09:58:16.261Z,65536
2017-07-04T09:59:16.318Z,90592
2017-07-04T10:00:16.385Z,82336
2017-07-04T10:01:16.418Z,28000
2017-07-04T10:02:16.479Z,20960
2017-07-04T10:03:16.526Z,21152
2017-07-04T10:04:16.585Z,23712
2017-07-04T10:05:16.632Z,61856
2017-07-04T10:06:16.690Z,81792
2017-07-04T10:07:16.741Z,73504
2017-07-04T10:08:16.792Z,85792
2017-07-04T10:09:16.844Z,89760
2017-07-04T10:10:16.913Z,87424
2017-07-04T10:11:16.949Z,88032
2017-07-04T10:12:17.000Z,26112
2017-07-04T10:13:17.054Z,94560
2017-07-04T10:14:17.106Z,87392
2017-07-04T10:15:17.159Z,47712
2017-07-04T10:16:17.211Z,60416
2017-07-04T10:17:17.263Z,34592
2017-07-04T10:18:17.319Z,23136
2017-07-04T10:19:17.377Z,81632
2017-07-04T10:20:17.435Z,29024
2017-07-04T10:21:17.476Z,58496
2017-07-04T10:22:17.535Z,47744
2017-07-04T10:23:17.591Z,23840
2017-07-04T10:24:17.641Z,22528
2017-07-04T10:25:17.689Z,14412
2017-07-04T10:26:17.749Z,13360
2017-07-04T10:27:17.794Z,12396
2017-07-04T10:28:17.850Z,11512
2017-07-04T10:29:17.904Z,10100
2017-07-04T10:30:17.948Z,8732
2017-07-04T10:31:18.003Z,7720
2017-07-04T10:32:18.055Z,74816
2017-07-04T10:33:18.102Z,83008
2017-07-04T10:34:18.153Z,15548
2017-07-04T10:35:18.212Z,20416
2017-07-04T10:36:18.246Z,13296
2017-07-04T10:37:18.305Z,13824
2017-07-04T10:38:18.351Z,12848
2017-07-04T10:39:18.401Z,12284
2017-07-04T10:40:18.448Z,12432
2017-07-04T10:41:18.498Z,15112
2017-07-04T10:42:18.547Z,18720
2017-07-04T10:43:18.592Z,91680
2017-07-04T10:44:18.637Z,91424
2017-07-04T10:45:18.686Z,84768
2017-07-04T10:46:18.741Z,81856
2017-07-04T10:47:18.838Z,82272
2017-07-04T10:48:18.839Z,83616
2017-07-04T10:49:18.889Z,89344
2017-07-04T10:50:19.260Z,95680
2017-07-04T10:51:18.990Z,98400
2017-07-04T10:52:19.042Z,100320
2017-07-04T10:53:19.096Z,92544
2017-07-04T10:54:19.146Z,82880
2017-07-04T10:55:19.196Z,82688
2017-07-04T10:56:19.248Z,81312
2017-07-04T10:57:19.308Z,90400
2017-07-04T10:58:19.356Z,96128
2017-07-04T10:59:19.407Z,104896
2017-07-04T11:00:19.459Z,111552
2017-07-04T11:01:19.517Z,108192
2017-07-04T11:02:19.563Z,23648
2017-07-04T11:03:19.624Z,64960
2017-07-04T11:04:19.676Z,73216
2017-07-04T11:05:19.728Z,52128
2017-07-04T11:06:19.772Z,23744
2017-07-04T11:07:20.150Z,13096
2017-07-04T11:08:19.877Z,11672
2017-07-04T11:09:19.935Z,11316
2017-07-04T11:10:19.986Z,11684
2017-07-04T11:11:20.034Z,13740
2017-07-04T11:12:20.090Z,10180
2017-07-04T11:13:20.130Z,10088
2017-07-04T11:14:20.185Z,9264
2017-07-04T11:15:20.233Z,9272
2017-07-04T11:16:20.287Z,12000
2017-07-04T11:17:20.335Z,13736
2017-07-04T11:18:20.382Z,14696
2017-07-04T11:19:20.429Z,13644
2017-07-04T11:20:20.477Z,12632
2017-07-04T11:21:20.521Z,14468
2017-07-04T11:22:20.576Z,11484
2017-07-04T11:23:20.624Z,8464
2017-07-04T11:24:20.665Z,9216
2017-07-04T11:25:20.711Z,9528
2017-07-04T11:26:21.078Z,11600
2017-07-04T11:27:20.806Z,12356
2017-07-04T11:28:20.853Z,13936
2017-07-04T11:29:20.906Z,15088
2017-07-04T11:30:20.952Z,16628
2017-07-04T11:31:21.000Z,16392
2017-07-04T11:32:21.047Z,16992
2017-07-04T11:33:21.093Z,15904
2017-07-04T11:34:21.133Z,14364
2017-07-04T11:35:21.192Z,12000
2017-07-04T11:36:21.231Z,10204
2017-07-04T11:37:21.277Z,8764
2017-07-04T11:38:21.325Z,7644
2017-07-04T11:39:21.364Z,6292
2017-07-04T11:40:21.410Z,5800
2017-07-04T11:41:21.457Z,6400
2017-07-04T11:42:21.508Z,7732
2017-07-04T11:43:21.556Z,9948
2017-07-04T11:44:21.603Z,9960
2017-07-04T11:45:21.644Z,9020
2017-07-04T11:46:21.685Z,8276
2017-07-04T11:47:21.739Z,7756
2017-07-04T11:48:21.782Z,6868
2017-07-04T11:49:21.829Z,7140
2017-07-04T11:50:21.872Z,6584
2017-07-04T11:51:21.912Z,7860
2017-07-04T11:52:21.967Z,8728
2017-07-04T11:53:22.003Z,7904
2017-07-04T11:54:22.050Z,7392
2017-07-04T11:55:22.414Z,6780
2017-07-04T11:56:22.139Z,6360
2017-07-04T11:57:22.187Z,5612
2017-07-04T11:58:22.227Z,5584
2017-07-04T11:59:22.279Z,7596
2017-07-04T12:00:22.320Z,10748
2017-07-04T12:01:22.366Z,10056
2017-07-04T12:02:22.413Z,9440
2017-07-04T12:03:22.453Z,8456
2017-07-04T12:04:22.507Z,8460
2017-07-04T12:05:22.543Z,8280
2017-07-04T12:06:22.591Z,8916
2017-07-04T12:07:22.632Z,10952
2017-07-04T12:08:22.678Z,10968
2017-07-04T12:09:22.728Z,9808
2017-07-04T12:10:22.763Z,8300
2017-07-04T12:11:22.810Z,7300
2017-07-04T12:12:22.862Z,6760
2017-07-04T12:13:23.124Z,6760
2017-07-04T12:14:22.950Z,6628
2017-07-04T12:15:22.990Z,6748
2017-07-04T12:16:23.036Z,6740
2017-07-04T12:17:23.079Z,6772
2017-07-04T12:18:23.122Z,7084
2017-07-04T12:19:23.168Z,7148
2017-07-04T12:20:23.531Z,6936
2017-07-04T12:21:24.046Z,7124
2017-07-04T12:22:23.299Z,7500
2017-07-04T12:23:23.344Z,6488
2017-07-04T12:24:24.000Z,6772
2017-07-04T12:25:23.432Z,7320
2017-07-04T12:26:24.287Z,8304
2017-07-04T12:27:23.524Z,10200
2017-07-04T12:28:25.429Z,11260
2017-07-04T12:29:23.610Z,9992
2017-07-04T12:30:25.561Z,9456
2017-07-04T12:31:25.602Z,8804
2017-07-04T12:32:25.614Z,8148
2017-07-04T12:33:25.750Z,7140
2017-07-04T12:34:25.526Z,6532
2017-07-04T12:35:24.630Z,6208
2017-07-04T12:36:23.924Z,6040
2017-07-04T12:37:23.973Z,5884
2017-07-04T12:38:24.013Z,5716
2017-07-04T12:39:24.062Z,5584
2017-07-04T12:40:24.101Z,5536
2017-07-04T12:41:24.150Z,5304
2017-07-04T12:42:24.194Z,5668
2017-07-04T12:43:24.238Z,5948
2017-07-04T12:44:24.278Z,5840
2017-07-04T12:45:24.328Z,6336
2017-07-04T12:46:24.683Z,6008
2017-07-04T12:47:24.409Z,5988
2017-07-04T12:48:24.454Z,6276
2017-07-04T12:49:24.501Z,6212
2017-07-04T12:50:24.548Z,5520
2017-07-04T12:51:24.584Z,6100
2017-07-04T12:52:24.636Z,5796
2017-07-04T12:53:24.676Z,6340
2017-07-04T12:54:24.717Z,8156
2017-07-04T12:55:24.767Z,8432
2017-07-04T12:56:24.813Z,6416
2017-07-04T12:57:24.866Z,6744
2017-07-04T12:58:24.901Z,7344
2017-07-04T12:59:24.939Z,7076
2017-07-04T13:00:24.989Z,7916
2017-07-04T13:01:25.030Z,8560
2017-07-04T13:02:25.072Z,9596
2017-07-04T13:03:25.117Z,10884
2017-07-04T13:04:25.163Z,10840
2017-07-04T13:05:25.209Z,10120
2017-07-04T13:06:25.245Z,8624
2017-07-04T13:07:25.298Z,7332
2017-07-04T13:08:25.342Z,6756
2017-07-04T13:09:25.381Z,7308
2017-07-04T13:10:25.425Z,7208
2017-07-04T13:11:25.475Z,6500
2017-07-04T13:12:25.834Z,6336
2017-07-04T13:13:25.561Z,6692
2017-07-04T13:14:25.602Z,7124
2017-07-04T13:15:25.646Z,8216
2017-07-04T13:16:25.695Z,8436
2017-07-04T13:17:25.738Z,8412
2017-07-04T13:18:25.782Z,9036
2017-07-04T13:19:25.821Z,9608
2017-07-04T13:20:25.871Z,10076
2017-07-04T13:21:25.916Z,10616
2017-07-04T13:22:25.960Z,10192
2017-07-04T13:23:26.006Z,9876
2017-07-04T13:24:26.048Z,8332
2017-07-04T13:25:26.093Z,6728
2017-07-04T13:26:26.140Z,5748
2017-07-04T13:27:26.183Z,5824
2017-07-04T13:28:26.225Z,5508